sensor_id;sensor_type;location;lat;lon;timestamp;pressure;altitude;pressure_sealevel;temperature;humidity
35443;BME280;21561;55.654;37.592;2023-02-13T00:00:19;99586.72;;;-7.46;100.00
35443;BME280;21561;55.654;37.592;2023-02-13T00:02:46;99580.13;;;-7.44;99.46
35443;BME280;21561;55.654;37.592;2023-02-13T00:05:13;99580.78;;;-7.46;99.42
35443;BME280;21561;55.654;37.592;2023-02-13T00:07:40;99577.41;;;-7.47;99.61
35443;BME280;21561;55.654;37.592;2023-02-13T00:10:08;99577.50;;;-7.45;99.27
35443;BME280;21561;55.654;37.592;2023-02-13T00:12:36;99569.19;;;-7.44;99.65
35443;BME280;21561;55.654;37.592;2023-02-13T00:15:03;99563.25;;;-7.45;99.52
35443;BME280;21561;55.654;37.592;2023-02-13T00:17:30;99562.47;;;-7.44;99.53
35443;BME280;21561;55.654;37.592;2023-02-13T00:19:57;99564.13;;;-7.44;99.60
35443;BME280;21561;55.654;37.592;2023-02-13T00:22:25;99541.50;;;-7.43;99.62
35443;BME280;21561;55.654;37.592;2023-02-13T00:24:51;99548.50;;;-7.39;99.24
35443;BME280;21561;55.654;37.592;2023-02-13T00:27:19;99542.78;;;-7.36;99.10
35443;BME280;21561;55.654;37.592;2023-02-13T00:29:46;99542.13;;;-7.34;99.06
35443;BME280;21561;55.654;37.592;2023-02-13T00:32:13;99536.38;;;-7.31;99.16
35443;BME280;21561;55.654;37.592;2023-02-13T00:34:40;99537.94;;;-7.33;99.04
35443;BME280;21561;55.654;37.592;2023-02-13T00:37:09;99535.50;;;-7.32;98.98
35443;BME280;21561;55.654;37.592;2023-02-13T00:39:37;99534.81;;;-7.29;99.17
35443;BME280;21561;55.654;37.592;2023-02-13T00:42:04;99526.66;;;-7.25;98.80
35443;BME280;21561;55.654;37.592;2023-02-13T00:44:31;99520.09;;;-7.23;99.05
35443;BME280;21561;55.654;37.592;2023-02-13T00:46:58;99510.34;;;-7.17;98.54
35443;BME280;21561;55.654;37.592;2023-02-13T00:49:25;99507.22;;;-7.13;97.99
35443;BME280;21561;55.654;37.592;2023-02-13T00:51:52;99500.56;;;-7.12;97.89
35443;BME280;21561;55.654;37.592;2023-02-13T00:54:19;99494.81;;;-7.10;97.61
35443;BME280;21561;55.654;37.592;2023-02-13T00:56:46;99495.59;;;-7.11;97.62
35443;BME280;21561;55.654;37.592;2023-02-13T00:59:12;99499.09;;;-7.08;97.78
35443;BME280;21561;55.654;37.592;2023-02-13T01:01:39;99487.25;;;-7.10;97.52
35443;BME280;21561;55.654;37.592;2023-02-13T01:04:06;99487.34;;;-7.08;97.36
35443;BME280;21561;55.654;37.592;2023-02-13T01:06:33;99483.97;;;-7.08;97.07
35443;BME280;21561;55.654;37.592;2023-02-13T01:09:02;99483.34;;;-7.04;96.88
35443;BME280;21561;55.654;37.592;2023-02-13T01:11:29;99491.88;;;-7.02;96.93
35443;BME280;21561;55.654;37.592;2023-02-13T01:13:56;99487.59;;;-7.03;97.02
35443;BME280;21561;55.654;37.592;2023-02-13T01:16:22;99490.06;;;-7.05;96.71
35443;BME280;21561;55.654;37.592;2023-02-13T01:18:49;99487.59;;;-7.03;96.96
35443;BME280;21561;55.654;37.592;2023-02-13T01:21:19;99489.38;;;-7.02;96.84
35443;BME280;21561;55.654;37.592;2023-02-13T01:23:46;99482.56;;;-7.03;96.83
35443;BME280;21561;55.654;37.592;2023-02-13T01:26:18;99480.84;;;-7.04;96.77
35443;BME280;21561;55.654;37.592;2023-02-13T01:28:45;99472.81;;;-7.12;96.62
35443;BME280;21561;55.654;37.592;2023-02-13T01:31:12;99471.94;;;-7.13;96.66
35443;BME280;21561;55.654;37.592;2023-02-13T01:33:39;99471.94;;;-7.13;96.45
35443;BME280;21561;55.654;37.592;2023-02-13T01:36:10;99468.03;;;-7.07;96.90
35443;BME280;21561;55.654;37.592;2023-02-13T01:38:37;99459.41;;;-7.11;96.71
35443;BME280;21561;55.654;37.592;2023-02-13T01:41:04;99445.84;;;-7.13;96.69
35443;BME280;21561;55.654;37.592;2023-02-13T01:46:17;99437.97;;;-7.04;96.51
35443;BME280;21561;55.654;37.592;2023-02-13T01:48:47;99443.78;;;-7.05;96.24
35443;BME280;21561;55.654;37.592;2023-02-13T01:51:18;99431.97;;;-7.06;96.04
35443;BME280;21561;55.654;37.592;2023-02-13T01:56:35;99419.38;;;-7.20;96.17
35443;BME280;21561;55.654;37.592;2023-02-13T01:59:09;99426.00;;;-7.22;96.60
35443;BME280;21561;55.654;37.592;2023-02-13T02:01:37;99408.09;;;-7.26;96.27
35443;BME280;21561;55.654;37.592;2023-02-13T02:04:17;99413.28;;;-7.23;96.77
35443;BME280;21561;55.654;37.592;2023-02-13T02:06:51;99402.16;;;-7.27;96.64
35443;BME280;21561;55.654;37.592;2023-02-13T02:09:23;99408.00;;;-7.28;97.09
35443;BME280;21561;55.654;37.592;2023-02-13T02:14:18;99398.47;;;-7.32;96.71
35443;BME280;21561;55.654;37.592;2023-02-13T02:16:46;99399.28;;;-7.33;96.57
35443;BME280;21561;55.654;37.592;2023-02-13T02:36:30;99376.41;;;-7.21;97.63
35443;BME280;21561;55.654;37.592;2023-02-13T02:45:06;99367.03;;;-7.24;98.47
35443;BME280;21561;55.654;37.592;2023-02-13T02:47:48;99356.09;;;-7.24;98.60
35443;BME280;21561;55.654;37.592;2023-02-13T02:50:40;99356.19;;;-7.23;98.91
35443;BME280;21561;55.654;37.592;2023-02-13T02:56:25;99340.25;;;-7.22;99.54
35443;BME280;21561;55.654;37.592;2023-02-13T02:58:57;99329.66;;;-7.16;99.08
35443;BME280;21561;55.654;37.592;2023-02-13T03:01:46;99334.13;;;-7.12;99.16
35443;BME280;21561;55.654;37.592;2023-02-13T03:04:35;99342.72;;;-7.08;98.97
35443;BME280;21561;55.654;37.592;2023-02-13T03:07:22;99329.50;;;-7.04;98.75
35443;BME280;21561;55.654;37.592;2023-02-13T03:09:56;99342.03;;;-7.06;98.77
35443;BME280;21561;55.654;37.592;2023-02-13T03:13:04;99338.22;;;-6.99;98.81
35443;BME280;21561;55.654;37.592;2023-02-13T03:15:51;99326.03;;;-7.06;99.36
35443;BME280;21561;55.654;37.592;2023-02-13T03:18:40;99324.28;;;-7.07;99.50
35443;BME280;21561;55.654;37.592;2023-02-13T03:21:36;99309.94;;;-7.08;99.79
35443;BME280;21561;55.654;37.592;2023-02-13T03:39:22;99291.41;;;-6.94;100.00
35443;BME280;21561;55.654;37.592;2023-02-13T03:41:59;99288.28;;;-6.90;100.00
35443;BME280;21561;55.654;37.592;2023-02-13T03:44:41;99270.16;;;-6.83;100.00
35443;BME280;21561;55.654;37.592;2023-02-13T03:47:10;99265.31;;;-6.80;100.00
35443;BME280;21561;55.654;37.592;2023-02-13T03:49:46;99262.16;;;-6.76;100.00
35443;BME280;21561;55.654;37.592;2023-02-13T03:53:02;99251.44;;;-6.72;100.00
35443;BME280;21561;55.654;37.592;2023-02-13T03:55:35;99254.13;;;-6.68;100.00
35443;BME280;21561;55.654;37.592;2023-02-13T03:58:25;99252.38;;;-6.69;100.00
35443;BME280;21561;55.654;37.592;2023-02-13T04:01:15;99255.09;;;-6.66;100.00
35443;BME280;21561;55.654;37.592;2023-02-13T04:03:48;99260.41;;;-6.62;100.00
35443;BME280;21561;55.654;37.592;2023-02-13T04:06:22;99247.88;;;-6.60;100.00
35443;BME280;21561;55.654;37.592;2023-02-13T04:08:51;99253.88;;;-6.58;100.00
35443;BME280;21561;55.654;37.592;2023-02-13T04:11:30;99255.00;;;-6.53;100.00
35443;BME280;21561;55.654;37.592;2023-02-13T04:14:03;99252.53;;;-6.52;100.00
35443;BME280;21561;55.654;37.592;2023-02-13T04:16:37;99245.03;;;-6.50;100.00
35443;BME280;21561;55.654;37.592;2023-02-13T04:19:06;99240.88;;;-6.49;100.00
35443;BME280;21561;55.654;37.592;2023-02-13T04:21:35;99237.38;;;-6.52;100.00
35443;BME280;21561;55.654;37.592;2023-02-13T04:24:02;99230.06;;;-6.47;100.00
35443;BME280;21561;55.654;37.592;2023-02-13T04:26:37;99223.44;;;-6.45;100.00
35443;BME280;21561;55.654;37.592;2023-02-13T04:29:05;99225.00;;;-6.47;100.00
35443;BME280;21561;55.654;37.592;2023-02-13T04:31:32;99211.75;;;-6.43;100.00
35443;BME280;21561;55.654;37.592;2023-02-13T04:33:59;99220.13;;;-6.44;100.00
35443;BME280;21561;55.654;37.592;2023-02-13T04:36:26;99206.88;;;-6.40;100.00
35443;BME280;21561;55.654;37.592;2023-02-13T04:38:52;99195.03;;;-6.41;100.00
35443;BME280;21561;55.654;37.592;2023-02-13T04:41:19;99208.13;;;-6.48;100.00
35443;BME280;21561;55.654;37.592;2023-02-13T04:43:46;99201.16;;;-6.52;100.00
35443;BME280;21561;55.654;37.592;2023-02-13T04:46:13;99195.09;;;-6.56;100.00
35443;BME280;21561;55.654;37.592;2023-02-13T04:48:40;99190.75;;;-6.58;100.00
35443;BME280;21561;55.654;37.592;2023-02-13T04:51:07;99190.91;;;-6.55;100.00
35443;BME280;21561;55.654;37.592;2023-02-13T04:53:34;99184.22;;;-6.55;100.00
35443;BME280;21561;55.654;37.592;2023-02-13T04:56:01;99182.38;;;-6.57;100.00
35443;BME280;21561;55.654;37.592;2023-02-13T04:58:27;99182.47;;;-6.56;100.00
35443;BME280;21561;55.654;37.592;2023-02-13T05:00:54;99179.09;;;-6.56;100.00
35443;BME280;21561;55.654;37.592;2023-02-13T05:03:22;99165.84;;;-6.52;100.00
35443;BME280;21561;55.654;37.592;2023-02-13T05:05:48;99156.78;;;-6.48;100.00
35443;BME280;21561;55.654;37.592;2023-02-13T05:08:15;99151.16;;;-6.43;100.00
35443;BME280;21561;55.654;37.592;2023-02-13T05:10:42;99157.09;;;-6.42;100.00
35443;BME280;21561;55.654;37.592;2023-02-13T05:13:09;99158.75;;;-6.43;100.00
35443;BME280;21561;55.654;37.592;2023-02-13T05:15:36;99137.59;;;-6.45;100.00
35443;BME280;21561;55.654;37.592;2023-02-13T05:18:03;99131.91;;;-6.41;100.00
35443;BME280;21561;55.654;37.592;2023-02-13T05:20:30;99125.31;;;-6.39;100.00
35443;BME280;21561;55.654;37.592;2023-02-13T05:22:58;99127.84;;;-6.39;100.00
35443;BME280;21561;55.654;37.592;2023-02-13T05:25:43;99128.88;;;-6.35;100.00
35443;BME280;21561;55.654;37.592;2023-02-13T05:28:10;99136.19;;;-6.40;100.00
35443;BME280;21561;55.654;37.592;2023-02-13T05:31:09;99137.38;;;-6.33;100.00
35443;BME280;21561;55.654;37.592;2023-02-13T05:33:36;99139.91;;;-6.33;100.00
35443;BME280;21561;55.654;37.592;2023-02-13T05:36:03;99128.31;;;-6.29;100.00
35443;BME280;21561;55.654;37.592;2023-02-13T05:38:29;99128.44;;;-6.26;100.00
35443;BME280;21561;55.654;37.592;2023-02-13T05:40:59;99120.38;;;-6.19;100.00
35443;BME280;21561;55.654;37.592;2023-02-13T05:43:27;99117.09;;;-6.18;100.00
35443;BME280;21561;55.654;37.592;2023-02-13T05:46:04;99120.38;;;-6.19;100.00
35443;BME280;21561;55.654;37.592;2023-02-13T05:48:32;99118.84;;;-6.17;100.00
35443;BME280;21561;55.654;37.592;2023-02-13T05:50:59;99121.41;;;-6.16;100.00
35443;BME280;21561;55.654;37.592;2023-02-13T05:53:26;99114.06;;;-6.11;100.00
35443;BME280;21561;55.654;37.592;2023-02-13T05:55:55;99127.81;;;-6.06;100.00
35443;BME280;21561;55.654;37.592;2023-02-13T05:58:22;99126.22;;;-6.04;100.00
35443;BME280;21561;55.654;37.592;2023-02-13T06:00:49;99131.69;;;-5.95;100.00
35443;BME280;21561;55.654;37.592;2023-02-13T06:03:16;99125.06;;;-5.92;100.00
35443;BME280;21561;55.654;37.592;2023-02-13T06:05:43;99126.97;;;-5.88;100.00
35443;BME280;21561;55.654;37.592;2023-02-13T06:08:10;99119.44;;;-5.87;100.00
35443;BME280;21561;55.654;37.592;2023-02-13T06:10:37;99123.94;;;-5.81;100.00
35443;BME280;21561;55.654;37.592;2023-02-13T06:13:04;99125.84;;;-5.77;100.00
35443;BME280;21561;55.654;37.592;2023-02-13T06:15:31;99114.41;;;-5.69;100.00
35443;BME280;21561;55.654;37.592;2023-02-13T06:17:58;99114.56;;;-5.66;100.00
35443;BME280;21561;55.654;37.592;2023-02-13T06:20:25;99111.34;;;-5.63;100.00
35443;BME280;21561;55.654;37.592;2023-02-13T06:22:52;99106.34;;;-5.62;100.00
35443;BME280;21561;55.654;37.592;2023-02-13T06:25:20;99120.06;;;-5.57;100.00
35443;BME280;21561;55.654;37.592;2023-02-13T06:27:47;99111.88;;;-5.52;100.00
35443;BME280;21561;55.654;37.592;2023-02-13T06:30:14;99112.56;;;-5.55;100.00
35443;BME280;21561;55.654;37.592;2023-02-13T06:32:41;99112.88;;;-5.49;100.00
35443;BME280;21561;55.654;37.592;2023-02-13T06:35:09;99100.59;;;-5.41;100.00
35443;BME280;21561;55.654;37.592;2023-02-13T06:37:35;99109.38;;;-5.33;100.00
35443;BME280;21561;55.654;37.592;2023-02-13T06:40:02;99116.34;;;-5.29;100.00
35443;BME280;21561;55.654;37.592;2023-02-13T06:42:29;99100.28;;;-5.29;100.00
35443;BME280;21561;55.654;37.592;2023-02-13T06:44:56;99095.19;;;-5.31;100.00
35443;BME280;21561;55.654;37.592;2023-02-13T06:47:23;99084.41;;;-5.27;100.00
35443;BME280;21561;55.654;37.592;2023-02-13T06:49:50;99074.56;;;-5.21;100.00
35443;BME280;21561;55.654;37.592;2023-02-13T06:52:17;99071.50;;;-5.13;100.00
35443;BME280;21561;55.654;37.592;2023-02-13T06:54:44;99075.56;;;-5.17;100.00
35443;BME280;21561;55.654;37.592;2023-02-13T06:57:14;99069.78;;;-5.14;100.00
35443;BME280;21561;55.654;37.592;2023-02-13T06:59:41;99073.25;;;-5.12;100.00
35443;BME280;21561;55.654;37.592;2023-02-13T07:02:10;99061.38;;;-5.13;100.00
35443;BME280;21561;55.654;37.592;2023-02-13T07:04:37;99064.94;;;-5.10;100.00
35443;BME280;21561;55.654;37.592;2023-02-13T07:07:04;99055.78;;;-5.08;100.00
35443;BME280;21561;55.654;37.592;2023-02-13T07:09:31;99062.47;;;-5.08;100.00
35443;BME280;21561;55.654;37.592;2023-02-13T07:12:02;99061.16;;;-5.00;100.00
35443;BME280;21561;55.654;37.592;2023-02-13T07:14:29;99046.91;;;-4.98;100.00
35443;BME280;21561;55.654;37.592;2023-02-13T07:16:56;99058.91;;;-4.94;100.00
35443;BME280;21561;55.654;37.592;2023-02-13T07:19:23;99043.72;;;-4.94;100.00
35443;BME280;21561;55.654;37.592;2023-02-13T07:21:50;99049.00;;;-4.89;100.00
35443;BME280;21561;55.654;37.592;2023-02-13T07:24:16;99042.56;;;-4.83;100.00
35443;BME280;21561;55.654;37.592;2023-02-13T07:26:44;99044.28;;;-4.82;100.00
35443;BME280;21561;55.654;37.592;2023-02-13T07:29:11;99013.28;;;-4.76;100.00
35443;BME280;21561;55.654;37.592;2023-02-13T07:31:38;99023.41;;;-4.76;100.00
35443;BME280;21561;55.654;37.592;2023-02-13T07:34:05;99024.34;;;-4.74;100.00
35443;BME280;21561;55.654;37.592;2023-02-13T07:36:33;99024.41;;;-4.72;100.00
35443;BME280;21561;55.654;37.592;2023-02-13T07:38:59;99030.53;;;-4.67;100.00
35443;BME280;21561;55.654;37.592;2023-02-13T07:41:26;99017.34;;;-4.60;100.00
35443;BME280;21561;55.654;37.592;2023-02-13T07:43:53;99016.56;;;-4.59;100.00
35443;BME280;21561;55.654;37.592;2023-02-13T07:46:20;99022.63;;;-4.55;100.00
35443;BME280;21561;55.654;37.592;2023-02-13T07:48:47;99026.88;;;-4.54;100.00
35443;BME280;21561;55.654;37.592;2023-02-13T07:51:14;99001.75;;;-4.50;100.00
35443;BME280;21561;55.654;37.592;2023-02-13T07:53:42;99012.03;;;-4.47;100.00
35443;BME280;21561;55.654;37.592;2023-02-13T07:56:09;99014.59;;;-4.45;100.00
35443;BME280;21561;55.654;37.592;2023-02-13T07:58:37;99002.81;;;-4.45;100.00
35443;BME280;21561;55.654;37.592;2023-02-13T08:01:07;99012.28;;;-4.41;100.00
35443;BME280;21561;55.654;37.592;2023-02-13T08:03:34;99009.19;;;-4.33;100.00
35443;BME280;21561;55.654;37.592;2023-02-13T08:06:02;99009.19;;;-4.33;100.00
35443;BME280;21561;55.654;37.592;2023-02-13T08:08:29;99015.25;;;-4.30;100.00
35443;BME280;21561;55.654;37.592;2023-02-13T08:10:56;99019.56;;;-4.27;100.00
35443;BME280;21561;55.654;37.592;2023-02-13T08:13:47;99011.03;;;-4.29;100.00
35443;BME280;21561;55.654;37.592;2023-02-13T08:16:14;99004.25;;;-4.30;100.00
35443;BME280;21561;55.654;37.592;2023-02-13T08:18:40;99001.81;;;-4.29;100.00
35443;BME280;21561;55.654;37.592;2023-02-13T08:21:07;98995.97;;;-4.26;100.00
35443;BME280;21561;55.654;37.592;2023-02-13T08:23:34;98986.84;;;-4.23;100.00
35443;BME280;21561;55.654;37.592;2023-02-13T08:26:01;98967.44;;;-4.22;100.00
35443;BME280;21561;55.654;37.592;2023-02-13T08:28:28;98971.88;;;-4.16;100.00
35443;BME280;21561;55.654;37.592;2023-02-13T08:30:55;98966.88;;;-4.15;100.00
35443;BME280;21561;55.654;37.592;2023-02-13T08:33:22;98962.63;;;-4.16;100.00
35443;BME280;21561;55.654;37.592;2023-02-13T08:35:49;98950.44;;;-4.04;100.00
35443;BME280;21561;55.654;37.592;2023-02-13T08:38:16;98953.09;;;-4.00;100.00
35443;BME280;21561;55.654;37.592;2023-02-13T08:40:43;98942.44;;;-3.92;100.00
35443;BME280;21561;55.654;37.592;2023-02-13T08:43:09;98948.50;;;-3.88;100.00
35443;BME280;21561;55.654;37.592;2023-02-13T08:45:36;98939.13;;;-3.91;100.00
35443;BME280;21561;55.654;37.592;2023-02-13T08:48:03;98941.81;;;-3.86;100.00
35443;BME280;21561;55.654;37.592;2023-02-13T08:50:31;98945.53;;;-3.78;100.00
35443;BME280;21561;55.654;37.592;2023-02-13T08:52:58;98950.72;;;-3.75;100.00
35443;BME280;21561;55.654;37.592;2023-02-13T08:55:26;98935.59;;;-3.72;100.00
35443;BME280;21561;55.654;37.592;2023-02-13T08:57:53;98927.44;;;-3.65;100.00
35443;BME280;21561;55.654;37.592;2023-02-13T09:00:20;98930.22;;;-3.58;100.00
35443;BME280;21561;55.654;37.592;2023-02-13T09:02:47;98938.84;;;-3.53;100.00
35443;BME280;21561;55.654;37.592;2023-02-13T09:05:14;98925.47;;;-3.49;100.00
35443;BME280;21561;55.654;37.592;2023-02-13T09:07:41;98924.91;;;-3.42;100.00
35443;BME280;21561;55.654;37.592;2023-02-13T09:10:08;98931.13;;;-3.34;100.00
35443;BME280;21561;55.654;37.592;2023-02-13T09:12:35;98908.38;;;-3.31;100.00
35443;BME280;21561;55.654;37.592;2023-02-13T09:15:03;98913.69;;;-3.24;100.00
35443;BME280;21561;55.654;37.592;2023-02-13T09:17:31;98915.66;;;-3.17;100.00
35443;BME280;21561;55.654;37.592;2023-02-13T09:19:57;98924.97;;;-3.16;100.00
35443;BME280;21561;55.654;37.592;2023-02-13T09:22:24;98907.31;;;-3.13;100.00
35443;BME280;21561;55.654;37.592;2023-02-13T09:24:51;98910.78;;;-3.11;100.00
35443;BME280;21561;55.654;37.592;2023-02-13T09:27:18;98909.25;;;-3.06;100.00
35443;BME280;21561;55.654;37.592;2023-02-13T09:29:45;98899.88;;;-3.09;100.00
35443;BME280;21561;55.654;37.592;2023-02-13T09:32:11;98903.38;;;-3.05;100.00
35443;BME280;21561;55.654;37.592;2023-02-13T09:34:38;98899.22;;;-3.03;100.00
35443;BME280;21561;55.654;37.592;2023-02-13T09:37:05;98895.91;;;-3.00;100.00
35443;BME280;21561;55.654;37.592;2023-02-13T09:39:32;98868.91;;;-2.98;100.00
35443;BME280;21561;55.654;37.592;2023-02-13T09:41:59;98875.78;;;-2.96;100.00
35443;BME280;21561;55.654;37.592;2023-02-13T09:44:33;98867.44;;;-2.92;100.00
35443;BME280;21561;55.654;37.592;2023-02-13T09:47:35;98852.53;;;-2.82;100.00
35443;BME280;21561;55.654;37.592;2023-02-13T09:50:22;98849.97;;;-2.82;100.00
35443;BME280;21561;55.654;37.592;2023-02-13T09:52:52;98841.03;;;-2.71;100.00
35443;BME280;21561;55.654;37.592;2023-02-13T09:55:46;98840.56;;;-2.59;100.00
35443;BME280;21561;55.654;37.592;2023-02-13T09:58:31;98832.34;;;-2.52;100.00
35443;BME280;21561;55.654;37.592;2023-02-13T10:01:00;98843.28;;;-2.55;100.00
35443;BME280;21561;55.654;37.592;2023-02-13T10:06:31;98829.84;;;-2.51;100.00
35443;BME280;21561;55.654;37.592;2023-02-13T10:09:19;98828.38;;;-2.44;100.00
35443;BME280;21561;55.654;37.592;2023-02-13T10:17:32;98819.78;;;-2.20;100.00
35443;BME280;21561;55.654;37.592;2023-02-13T10:22:50;98830.81;;;-2.20;100.00
35443;BME280;21561;55.654;37.592;2023-02-13T10:25:24;98828.25;;;-2.20;100.00
35443;BME280;21561;55.654;37.592;2023-02-13T10:28:11;98827.63;;;-2.13;100.00
35443;BME280;21561;55.654;37.592;2023-02-13T10:30:55;98822.44;;;-2.16;100.00
35443;BME280;21561;55.654;37.592;2023-02-13T10:33:29;98825.81;;;-2.17;100.00
35443;BME280;21561;55.654;37.592;2023-02-13T10:38:29;98825.00;;;-2.16;100.00
35443;BME280;21561;55.654;37.592;2023-02-13T10:41:04;98819.84;;;-2.19;100.00
35443;BME280;21561;55.654;37.592;2023-02-13T10:43:38;98828.59;;;-2.09;100.00
35443;BME280;21561;55.654;37.592;2023-02-13T10:46:13;98812.38;;;-2.13;100.00
35443;BME280;21561;55.654;37.592;2023-02-13T10:49:01;98804.84;;;-2.09;100.00
35443;BME280;21561;55.654;37.592;2023-02-13T10:57:08;98785.78;;;-1.95;100.00
35443;BME280;21561;55.654;37.592;2023-02-13T11:02:32;98782.13;;;-2.03;100.00
35443;BME280;21561;55.654;37.592;2023-02-13T11:07:40;98753.38;;;-2.02;100.00
35443;BME280;21561;55.654;37.592;2023-02-13T11:10:24;98747.66;;;-1.95;100.00
35443;BME280;21561;55.654;37.592;2023-02-13T11:12:52;98743.47;;;-1.93;100.00
35443;BME280;21561;55.654;37.592;2023-02-13T11:15:26;98750.44;;;-1.86;100.00
35443;BME280;21561;55.654;37.592;2023-02-13T11:17:56;98743.81;;;-1.81;100.00
35443;BME280;21561;55.654;37.592;2023-02-13T11:20:32;98728.78;;;-1.71;100.00
35443;BME280;21561;55.654;37.592;2023-02-13T11:26:24;98735.09;;;-1.25;100.00
35443;BME280;21561;55.654;37.592;2023-02-13T11:28:55;98745.59;;;-1.13;100.00
35443;BME280;21561;55.654;37.592;2023-02-13T11:31:28;98731.06;;;-1.16;100.00
35443;BME280;21561;55.654;37.592;2023-02-13T11:33:57;98733.47;;;-1.22;100.00
35443;BME280;21561;55.654;37.592;2023-02-13T11:36:31;98743.56;;;-1.25;100.00
35443;BME280;21561;55.654;37.592;2023-02-13T11:39:05;98736.75;;;-1.27;100.00
35443;BME280;21561;55.654;37.592;2023-02-13T11:41:39;98727.31;;;-1.30;100.00
35443;BME280;21561;55.654;37.592;2023-02-13T11:44:19;98727.25;;;-1.33;100.00
35443;BME280;21561;55.654;37.592;2023-02-13T11:46:52;98718.66;;;-1.37;100.00
35443;BME280;21561;55.654;37.592;2023-02-13T11:49:24;98709.56;;;-1.28;100.00
35443;BME280;21561;55.654;37.592;2023-02-13T11:51:54;98708.53;;;-1.35;100.00
35443;BME280;21561;55.654;37.592;2023-02-13T11:57:02;98701.78;;;-1.33;100.00
35443;BME280;21561;55.654;37.592;2023-02-13T11:59:40;98706.81;;;-1.36;100.00
35443;BME280;21561;55.654;37.592;2023-02-13T12:04:40;98685.88;;;-1.24;100.00
35443;BME280;21561;55.654;37.592;2023-02-13T12:07:27;98681.94;;;-1.11;100.00
35443;BME280;21561;55.654;37.592;2023-02-13T12:10:04;98686.28;;;-1.09;100.00
35443;BME280;21561;55.654;37.592;2023-02-13T12:12:42;98685.50;;;-1.05;100.00
35443;BME280;21561;55.654;37.592;2023-02-13T12:15:29;98674.56;;;-1.01;100.00
35443;BME280;21561;55.654;37.592;2023-02-13T12:18:15;98662.81;;;-0.96;100.00
35443;BME280;21561;55.654;37.592;2023-02-13T12:23:53;98658.78;;;-0.86;100.00
35443;BME280;21561;55.654;37.592;2023-02-13T12:26:41;98663.00;;;-0.86;100.00
35443;BME280;21561;55.654;37.592;2023-02-13T12:31:52;98667.53;;;-0.74;100.00
35443;BME280;21561;55.654;37.592;2023-02-13T12:37:23;98676.78;;;-0.78;100.00
35443;BME280;21561;55.654;37.592;2023-02-13T12:40:13;98655.34;;;-0.88;100.00
35443;BME280;21561;55.654;37.592;2023-02-13T13:14:50;98617.25;;;-0.83;100.00
35443;BME280;21561;55.654;37.592;2023-02-13T13:17:35;98622.31;;;-0.83;100.00
35443;BME280;21561;55.654;37.592;2023-02-13T13:23:36;98603.69;;;-0.82;100.00
35443;BME280;21561;55.654;37.592;2023-02-13T13:26:17;98606.28;;;-0.79;100.00
35443;BME280;21561;55.654;37.592;2023-02-13T13:28:51;98609.75;;;-0.77;100.00
35443;BME280;21561;55.654;37.592;2023-02-13T13:31:19;98613.19;;;-0.75;100.00
35443;BME280;21561;55.654;37.592;2023-02-13T13:33:50;98621.72;;;-0.73;100.00
35443;BME280;21561;55.654;37.592;2023-02-13T13:36:36;98612.44;;;-0.69;100.00
35443;BME280;21561;55.654;37.592;2023-02-13T13:39:32;98609.97;;;-0.65;100.00
35443;BME280;21561;55.654;37.592;2023-02-13T13:50:46;98598.91;;;-0.67;100.00
35443;BME280;21561;55.654;37.592;2023-02-13T13:53:14;98600.56;;;-0.69;100.00
35443;BME280;21561;55.654;37.592;2023-02-13T13:58:34;98592.09;;;-0.68;100.00
35443;BME280;21561;55.654;37.592;2023-02-13T14:01:25;98581.91;;;-0.68;100.00
35443;BME280;21561;55.654;37.592;2023-02-13T14:03:57;98582.66;;;-0.73;100.00
35443;BME280;21561;55.654;37.592;2023-02-13T14:06:28;98586.84;;;-0.74;100.00
35443;BME280;21561;55.654;37.592;2023-02-13T14:11:54;98587.56;;;-0.81;100.00
35443;BME280;21561;55.654;37.592;2023-02-13T14:17:00;98575.72;;;-0.79;100.00
35443;BME280;21561;55.654;37.592;2023-02-13T14:19:38;98574.09;;;-0.75;100.00
35443;BME280;21561;55.654;37.592;2023-02-13T14:27:23;98552.78;;;-0.79;100.00
35443;BME280;21561;55.654;37.592;2023-02-13T14:29:50;98552.75;;;-0.82;100.00
35443;BME280;21561;55.654;37.592;2023-02-13T14:34:55;98539.13;;;-0.84;100.00
35443;BME280;21561;55.654;37.592;2023-02-13T14:37:32;98551.84;;;-0.84;100.00
35443;BME280;21561;55.654;37.592;2023-02-13T14:42:43;98547.66;;;-0.82;100.00
35443;BME280;21561;55.654;37.592;2023-02-13T14:45:28;98552.63;;;-0.87;100.00
35443;BME280;21561;55.654;37.592;2023-02-13T14:47:56;98544.97;;;-0.88;100.00
35443;BME280;21561;55.654;37.592;2023-02-13T14:50:27;98539.91;;;-0.87;100.00
35443;BME280;21561;55.654;37.592;2023-02-13T14:52:58;98543.25;;;-0.89;100.00
35443;BME280;21561;55.654;37.592;2023-02-13T14:55:37;98541.56;;;-0.89;100.00
35443;BME280;21561;55.654;37.592;2023-02-13T15:00:56;98529.78;;;-0.84;100.00
35443;BME280;21561;55.654;37.592;2023-02-13T15:03:48;98522.06;;;-0.87;100.00
35443;BME280;21561;55.654;37.592;2023-02-13T15:06:27;98516.06;;;-0.90;100.00
35443;BME280;21561;55.654;37.592;2023-02-13T15:08:58;98521.16;;;-0.90;100.00
35443;BME280;21561;55.654;37.592;2023-02-13T15:11:39;98503.28;;;-0.92;100.00
35443;BME280;21561;55.654;37.592;2023-02-13T15:14:19;98494.78;;;-0.92;100.00
35443;BME280;21561;55.654;37.592;2023-02-13T15:16:58;98487.97;;;-0.93;100.00
35443;BME280;21561;55.654;37.592;2023-02-13T15:19:27;98495.56;;;-0.97;100.00
35443;BME280;21561;55.654;37.592;2023-02-13T15:21:59;98478.69;;;-0.91;100.00
35443;BME280;21561;55.654;37.592;2023-02-13T15:24:47;98460.88;;;-0.91;100.00
35443;BME280;21561;55.654;37.592;2023-02-13T15:27:22;98450.56;;;-0.98;100.00
35443;BME280;21561;55.654;37.592;2023-02-13T15:29:56;98455.66;;;-0.98;100.00
35443;BME280;21561;55.654;37.592;2023-02-13T15:32:32;98453.88;;;-1.02;100.00
35443;BME280;21561;55.654;37.592;2023-02-13T15:35:00;98449.63;;;-1.01;100.00
35443;BME280;21561;55.654;37.592;2023-02-13T15:37:29;98453.88;;;-1.02;100.00
35443;BME280;21561;55.654;37.592;2023-02-13T15:40:23;98448.78;;;-1.02;100.00
35443;BME280;21561;55.654;37.592;2023-02-13T15:42:51;98443.63;;;-1.05;100.00